createdAt,value
2019-04-21T00:00:58.685Z,101307.56
2019-04-21T00:03:34.783Z,101306.15
2019-04-21T00:06:15.660Z,101301.76
2019-04-21T00:08:50.837Z,101300.34
2019-04-21T00:11:24.931Z,101296.02
2019-04-21T00:13:42.580Z,101293.82
2019-04-21T00:16:07.600Z,101296.48
2019-04-21T00:18:57.360Z,101290.78
2019-04-21T00:21:29.152Z,101297.53
2019-04-21T00:24:24.020Z,101296.41
2019-04-21T00:27:18.751Z,101295.06
2019-04-21T00:29:40.888Z,101288.78
2019-04-21T00:32:03.037Z,101284.64
2019-04-21T00:34:19.442Z,101288.29
2019-04-21T00:37:00.119Z,101282.84
2019-04-21T00:39:48.970Z,101280.38
2019-04-21T00:42:09.883Z,101279.02
2019-04-21T00:44:33.246Z,101282.00
2019-04-21T00:47:13.960Z,101279.80
2019-04-21T00:49:55.425Z,101276.00
2019-04-21T00:52:43.668Z,101269.42
2019-04-21T00:55:07.688Z,101266.93
2019-04-21T00:57:32.588Z,101274.92
2019-04-21T00:59:59.171Z,101271.09
2019-04-21T01:02:39.937Z,101270.47
2019-04-21T01:05:09.121Z,101272.28
2019-04-21T01:07:35.990Z,101271.92
2019-04-21T01:09:58.977Z,101267.80
2019-04-21T01:12:37.250Z,101262.90
2019-04-21T01:15:12.157Z,101259.07
2019-04-21T01:17:40.648Z,101260.70
2019-04-21T01:20:01.677Z,101259.07
2019-04-21T01:22:21.669Z,101256.90
2019-04-21T01:25:01.389Z,101260.70
2019-04-21T01:27:47.875Z,101262.52
2019-04-21T01:30:16.339Z,101260.47
2019-04-21T01:32:51.186Z,101257.98
2019-04-21T01:35:19.321Z,101252.29
2019-04-21T01:37:49.670Z,101253.03
2019-04-21T01:40:22.958Z,101257.56
2019-04-21T01:42:51.407Z,101250.12
2019-04-21T01:45:22.486Z,101248.25
2019-04-21T01:47:51.099Z,101244.61
2019-04-21T01:50:25.483Z,101241.36
2019-04-21T01:53:02.374Z,101234.77
2019-04-21T01:55:48.545Z,101238.17
2019-04-21T01:58:15.443Z,101232.68
2019-04-21T02:00:51.831Z,101230.66
2019-04-21T02:06:04.896Z,101236.73
2019-04-21T02:08:27.521Z,101243.36
2019-04-21T02:11:07.527Z,101240.87
2019-04-21T02:13:43.893Z,101241.32
2019-04-21T02:16:06.491Z,101236.91
2019-04-21T02:18:33.682Z,101239.02
2019-04-21T02:20:52.828Z,101236.17
2019-04-21T02:23:46.505Z,101230.44
2019-04-21T02:26:13.591Z,101232.50
2019-04-21T02:29:13.181Z,101232.20
2019-04-21T02:31:39.604Z,101232.98
2019-04-21T02:34:00.529Z,101231.56
2019-04-21T02:41:30.885Z,101229.23
2019-04-21T02:46:38.543Z,101219.19
2019-04-21T02:49:04.263Z,101213.81
2019-04-21T02:51:36.983Z,101215.91
2019-04-21T02:54:40.574Z,101215.88
2019-04-21T02:59:17.324Z,101212.55
2019-04-21T03:01:49.006Z,101207.89
2019-04-21T03:04:18.580Z,101203.46
2019-04-21T03:07:14.828Z,101203.34
2019-04-21T03:09:35.803Z,101205.16
2019-04-21T03:12:22.540Z,101192.11
2019-04-21T03:14:56.097Z,101192.98
2019-04-21T03:17:26.719Z,101186.69
2019-04-21T03:19:55.708Z,101193.25
2019-04-21T03:22:22.572Z,101180.21
2019-04-21T03:30:00.330Z,101190.11
2019-04-21T03:37:37.198Z,101173.84
2019-04-21T03:39:59.853Z,101173.84
2019-04-21T03:42:33.835Z,101172.81
2019-04-21T03:45:06.984Z,101168.78
2019-04-21T03:47:32.520Z,101171.47
2019-04-21T03:50:23.882Z,101176.25
2019-04-21T03:52:48.171Z,101174.91
2019-04-21T03:58:26.087Z,101173.44
2019-04-21T04:01:00.615Z,101174.22
2019-04-21T04:09:14.321Z,101177.31
2019-04-21T04:11:31.603Z,101176.53
2019-04-21T04:19:09.421Z,101172.81
2019-04-21T04:24:13.331Z,101181.90
2019-04-21T04:26:33.511Z,101181.38
2019-04-21T04:29:05.934Z,101193.76
2019-04-21T04:36:46.999Z,101192.02
2019-04-21T04:39:42.862Z,101192.40
2019-04-21T04:42:14.051Z,101188.95
2019-04-21T04:47:11.458Z,101186.48
2019-04-21T04:49:46.651Z,101186.09
2019-04-21T04:57:25.981Z,101188.36
2019-04-21T04:59:49.507Z,101190.38
2019-04-21T05:09:59.537Z,101185.02
2019-04-21T05:12:17.499Z,101185.16
2019-04-21T05:14:53.376Z,101192.27
2019-04-21T05:17:31.147Z,101181.61
2019-04-21T05:20:03.556Z,101184.52
2019-04-21T05:22:21.940Z,101181.38
2019-04-21T05:24:47.613Z,101185.09
2019-04-21T05:27:25.586Z,101182.08
2019-04-21T05:30:07.230Z,101176.58
2019-04-21T05:32:45.239Z,101182.36
2019-04-21T05:35:16.873Z,101177.34
2019-04-21T05:38:05.827Z,101172.16
2019-04-21T05:40:31.814Z,101171.17
2019-04-21T05:43:09.214Z,101170.82
2019-04-21T05:45:41.168Z,101173.92
2019-04-21T05:50:58.929Z,101174.26
2019-04-21T05:53:37.381Z,101173.41
2019-04-21T05:56:07.075Z,101173.86
2019-04-21T05:58:39.162Z,101178.31
2019-04-21T06:01:16.624Z,101170.36
2019-04-21T06:03:47.552Z,101178.08
2019-04-21T06:08:44.694Z,101174.85
2019-04-21T06:11:19.149Z,101172.23
2019-04-21T06:16:27.822Z,101168.93
2019-04-21T06:18:53.059Z,101165.77
2019-04-21T06:21:21.731Z,101167.52
2019-04-21T06:23:54.885Z,101168.40
2019-04-21T06:29:13.478Z,101157.42
2019-04-21T06:31:57.826Z,101155.27
2019-04-21T06:33:58.559Z,101154.77
2019-04-21T06:36:42.275Z,101157.53
2019-04-21T06:39:24.209Z,101161.61
2019-04-21T06:42:02.780Z,101162.18
2019-04-21T06:44:16.767Z,101163.84
2019-04-21T06:46:45.988Z,101161.14
2019-04-21T06:49:16.169Z,101163.58
2019-04-21T06:51:58.311Z,101157.61
2019-04-21T06:54:23.468Z,101161.63
2019-04-21T06:56:51.537Z,101164.23
2019-04-21T06:59:28.077Z,101166.86
2019-04-21T07:02:13.462Z,101164.88
2019-04-21T07:04:31.759Z,101156.81
2019-04-21T07:06:56.343Z,101163.42
2019-04-21T07:09:31.317Z,101162.46
2019-04-21T07:11:59.710Z,101169.25
2019-04-21T07:14:32.010Z,101165.14
2019-04-21T07:17:15.935Z,101164.30
2019-04-21T07:19:46.163Z,101165.44
2019-04-21T07:22:12.719Z,101164.09
2019-04-21T07:24:58.714Z,101160.27
2019-04-21T07:27:16.179Z,101161.87
2019-04-21T07:29:47.558Z,101159.89
2019-04-21T07:32:20.979Z,101165.23
2019-04-21T07:34:46.152Z,101158.34
2019-04-21T07:37:11.580Z,101155.86
2019-04-21T07:39:43.928Z,101151.61
2019-04-21T07:42:16.366Z,101151.14
2019-04-21T07:44:40.889Z,101159.95
2019-04-21T07:47:25.334Z,101159.69
2019-04-21T07:52:39.448Z,101152.44
2019-04-21T07:57:36.709Z,101155.14
2019-04-21T08:02:40.681Z,101149.24
2019-04-21T08:07:55.927Z,101142.97
2019-04-21T08:10:15.699Z,101141.35
2019-04-21T08:12:50.667Z,101134.68
2019-04-21T08:15:27.597Z,101137.05
2019-04-21T08:17:47.255Z,101136.78
2019-04-21T08:20:19.896Z,101134.70
2019-04-21T08:25:27.234Z,101125.13
2019-04-21T08:28:01.430Z,101133.35
2019-04-21T08:30:30.345Z,101122.12
2019-04-21T08:33:14.361Z,101134.36
2019-04-21T08:35:53.013Z,101127.70
2019-04-21T08:38:08.829Z,101127.87
2019-04-21T08:43:08.851Z,101118.34
2019-04-21T08:45:41.455Z,101119.95
2019-04-21T08:48:13.572Z,101119.77
2019-04-21T08:50:47.030Z,101123.66
2019-04-21T08:53:41.130Z,101119.25
2019-04-21T09:01:02.397Z,101119.78
2019-04-21T09:03:44.811Z,101113.47
2019-04-21T09:06:27.368Z,101109.70
2019-04-21T09:08:46.095Z,101103.53
2019-04-21T09:11:17.681Z,101101.20
2019-04-21T09:13:52.353Z,101097.99
2019-04-21T09:16:18.845Z,101092.09
2019-04-21T09:18:48.705Z,101095.41
2019-04-21T09:21:29.877Z,101093.45
2019-04-21T09:23:56.345Z,101095.77
2019-04-21T09:26:25.221Z,101091.02
2019-04-21T09:28:56.332Z,101084.77
2019-04-21T09:31:12.136Z,101085.83
2019-04-21T09:33:47.163Z,101075.88
2019-04-21T09:36:18.046Z,101069.70
2019-04-21T09:38:54.918Z,101064.55
2019-04-21T09:41:18.966Z,101061.42
2019-04-21T09:43:52.016Z,101052.77
2019-04-21T09:46:18.567Z,101053.50
2019-04-21T09:48:56.797Z,101050.01
2019-04-21T09:51:20.079Z,101045.68
2019-04-21T09:53:58.307Z,101056.54
2019-04-21T09:56:31.553Z,101044.61
2019-04-21T09:59:05.367Z,101044.00
2019-04-21T10:01:29.910Z,101038.45
2019-04-21T10:04:00.068Z,101035.34
2019-04-21T10:06:28.232Z,101034.36
2019-04-21T10:09:04.013Z,101036.28
2019-04-21T10:11:29.424Z,101026.86
2019-04-21T10:13:59.012Z,101024.92
2019-04-21T10:16:42.856Z,101028.61
2019-04-21T10:19:13.215Z,101024.34
2019-04-21T10:21:44.382Z,101027.34
2019-04-21T10:24:13.997Z,101025.27
2019-04-21T10:26:43.588Z,101016.73
2019-04-21T10:29:21.802Z,101014.34
2019-04-21T10:31:44.994Z,101016.73
2019-04-21T10:34:14.697Z,101012.52
2019-04-21T10:36:44.891Z,101006.34
2019-04-21T10:39:15.712Z,100999.34
2019-04-21T10:41:45.854Z,101001.50
2019-04-21T10:44:16.942Z,100998.27
2019-04-21T10:46:48.661Z,100993.13
2019-04-21T10:49:18.981Z,100989.98
2019-04-21T10:51:48.983Z,100991.09
2019-04-21T10:54:19.997Z,100993.31
2019-04-21T10:56:50.828Z,100984.06
2019-04-21T10:59:20.652Z,100989.66
2019-04-21T11:01:50.475Z,100980.53
2019-04-21T11:04:32.406Z,100983.69
2019-04-21T11:07:07.044Z,100973.38
2019-04-21T11:09:29.832Z,100970.91
2019-04-21T11:11:59.970Z,100970.03
2019-04-21T11:14:29.646Z,100965.69
2019-04-21T11:17:00.524Z,100963.76
2019-04-21T11:19:32.681Z,100951.57
2019-04-21T11:22:02.980Z,100949.89
2019-04-21T11:24:33.260Z,100949.16
2019-04-21T11:27:04.516Z,100945.43
2019-04-21T11:29:35.066Z,100946.78
2019-04-21T11:32:05.381Z,100946.00
2019-04-21T11:34:35.071Z,100943.47
2019-04-21T11:37:06.193Z,100926.83
2019-04-21T11:39:45.842Z,100934.99
2019-04-21T11:42:10.051Z,100932.99
2019-04-21T11:44:41.788Z,100924.25
2019-04-21T11:47:14.293Z,100924.05
2019-04-21T11:49:45.206Z,100919.40
2019-04-21T11:52:14.914Z,100922.11
2019-04-21T11:54:44.667Z,100912.47
2019-04-21T11:57:22.286Z,100911.73
2019-04-21T11:59:45.877Z,100907.22
2019-04-21T12:02:15.511Z,100906.95
2019-04-21T12:04:45.463Z,100900.34
2019-04-21T12:07:15.457Z,100899.04
2019-04-21T12:09:45.718Z,100888.78
2019-04-21T12:12:15.435Z,100888.53
2019-04-21T12:14:46.549Z,100889.12
2019-04-21T12:17:16.396Z,100885.05
2019-04-21T12:19:46.182Z,100885.07
2019-04-21T12:22:21.270Z,100884.33
2019-04-21T12:24:47.453Z,100878.45
2019-04-21T12:27:18.158Z,100886.14
2019-04-21T12:29:47.998Z,100874.41
2019-04-21T12:32:33.927Z,100869.59
2019-04-21T12:35:04.052Z,100861.26
2019-04-21T12:37:35.001Z,100865.79
2019-04-21T12:40:06.433Z,100858.99
2019-04-21T12:42:38.729Z,100861.75
2019-04-21T12:45:10.387Z,100857.97
2019-04-21T12:47:40.065Z,100850.33
2019-04-21T12:50:10.992Z,100851.79
2019-04-21T12:52:41.966Z,100836.86
2019-04-21T12:55:11.740Z,100832.59
2019-04-21T12:57:41.614Z,100825.36
2019-04-21T13:00:15.108Z,100821.44
2019-04-21T13:02:45.578Z,100820.30
2019-04-21T13:05:15.816Z,100815.63
2019-04-21T13:07:45.698Z,100813.97
2019-04-21T13:10:18.042Z,100806.49
2019-04-21T13:12:48.029Z,100802.92
2019-04-21T13:15:18.151Z,100809.39
2019-04-21T13:17:47.737Z,100802.63
2019-04-21T13:20:19.140Z,100796.75
2019-04-21T13:22:50.291Z,100787.70
2019-04-21T13:25:20.185Z,100787.13
2019-04-21T13:27:49.766Z,100779.75
2019-04-21T13:30:20.304Z,100783.97
2019-04-21T13:32:51.272Z,100775.11
2019-04-21T13:35:21.290Z,100771.28
2019-04-21T13:37:52.284Z,100771.45
2019-04-21T13:40:59.934Z,100765.91
2019-04-21T13:43:14.833Z,100768.15
2019-04-21T13:45:45.819Z,100760.06
2019-04-21T13:48:16.818Z,100754.48
2019-04-21T13:50:47.070Z,100747.09
2019-04-21T13:53:16.949Z,100742.72
2019-04-21T13:55:46.742Z,100741.97
2019-04-21T13:58:16.856Z,100748.53
2019-04-21T14:00:47.680Z,100743.95
2019-04-21T14:03:20.937Z,100736.11
2019-04-21T14:05:48.794Z,100732.80
2019-04-21T14:08:18.894Z,100737.42
2019-04-21T14:10:49.351Z,100730.13
2019-04-21T14:13:20.350Z,100731.89
2019-04-21T14:15:51.695Z,100730.54
2019-04-21T14:18:22.546Z,100721.74
2019-04-21T14:20:53.393Z,100710.94
2019-04-21T14:23:32.226Z,100713.31
2019-04-21T14:25:55.505Z,100717.52
2019-04-21T14:28:26.062Z,100715.26
2019-04-21T14:30:56.514Z,100705.21
2019-04-21T14:33:26.090Z,100705.89
2019-04-21T14:35:56.861Z,100707.61
2019-04-21T14:38:26.841Z,100706.50
2019-04-21T14:40:56.625Z,100693.18
2019-04-21T14:43:26.252Z,100700.25
2019-04-21T14:45:58.978Z,100692.88
2019-04-21T14:48:29.564Z,100683.00
2019-04-21T14:51:04.512Z,100677.33
2019-04-21T14:53:51.998Z,100672.38
2019-04-21T14:56:21.627Z,100663.64
2019-04-21T14:58:51.445Z,100667.64
2019-04-21T15:01:21.961Z,100661.42
2019-04-21T15:03:52.021Z,100659.70
2019-04-21T15:06:21.641Z,100669.25
2019-04-21T15:08:51.229Z,100662.78
2019-04-21T15:11:22.147Z,100656.97
2019-04-21T15:13:51.827Z,100653.31
2019-04-21T15:16:22.870Z,100657.84
2019-04-21T15:18:52.829Z,100656.20
2019-04-21T15:21:23.575Z,100649.77
2019-04-21T15:23:54.114Z,100649.67
2019-04-21T15:26:24.171Z,100641.98
2019-04-21T15:28:54.958Z,100647.33
2019-04-21T15:31:30.707Z,100640.02
2019-04-21T15:33:57.090Z,100642.36
2019-04-21T15:36:27.204Z,100644.66
2019-04-21T15:38:58.012Z,100639.28
2019-04-21T15:41:27.651Z,100634.62
2019-04-21T15:43:59.629Z,100634.55
2019-04-21T15:46:30.568Z,100627.56
2019-04-21T15:49:00.555Z,100635.81
2019-04-21T15:51:31.551Z,100635.38
2019-04-21T15:54:02.647Z,100629.63
2019-04-21T15:56:38.426Z,100621.75
2019-04-21T15:59:18.781Z,100625.50
2019-04-21T16:01:52.926Z,100626.73
2019-04-21T16:04:23.045Z,100619.77
2019-04-21T16:06:53.464Z,100619.75
2019-04-21T16:09:25.880Z,100612.31
2019-04-21T16:11:55.676Z,100619.26
2019-04-21T16:14:26.880Z,100612.61
2019-04-21T16:16:57.098Z,100604.78
2019-04-21T16:19:27.170Z,100608.30
2019-04-21T16:21:56.951Z,100603.58
2019-04-21T16:24:27.359Z,100597.59
2019-04-21T16:27:01.308Z,100601.69
2019-04-21T16:29:29.249Z,100597.98
2019-04-21T16:31:59.643Z,100595.21
2019-04-21T16:34:41.360Z,100589.22
2019-04-21T16:37:01.518Z,100591.30
2019-04-21T16:39:31.722Z,100588.78
2019-04-21T16:42:02.532Z,100584.48
2019-04-21T16:44:32.311Z,100582.14
2019-04-21T16:47:03.334Z,100580.18
2019-04-21T16:49:33.723Z,100586.61
2019-04-21T16:52:18.187Z,100579.01
2019-04-21T16:54:49.803Z,100577.27
2019-04-21T16:57:21.715Z,100572.95
2019-04-21T16:59:53.039Z,100570.01
2019-04-21T17:02:24.817Z,100571.60
2019-04-21T17:04:54.412Z,100563.77
2019-04-21T17:07:24.143Z,100564.03
2019-04-21T17:09:54.878Z,100560.88
2019-04-21T17:12:26.791Z,100547.53
2019-04-21T17:15:12.279Z,100554.47
2019-04-21T17:17:50.872Z,100552.71
2019-04-21T17:20:13.578Z,100553.75
2019-04-21T17:22:31.412Z,100556.42
2019-04-21T17:25:02.629Z,100555.73
2019-04-21T17:27:33.392Z,100552.92
2019-04-21T17:30:04.338Z,100552.95
2019-04-21T17:32:38.706Z,100554.55
2019-04-21T17:35:08.083Z,100552.78
2019-04-21T17:37:38.341Z,100546.69
2019-04-21T17:40:09.587Z,100549.53
2019-04-21T17:42:46.543Z,100550.16
2019-04-21T17:45:10.972Z,100543.80
2019-04-21T17:47:49.917Z,100549.27
2019-04-21T17:50:19.593Z,100544.67
2019-04-21T17:53:12.637Z,100542.40
2019-04-21T17:56:05.018Z,100548.09
2019-04-21T17:58:33.857Z,100539.58
2019-04-21T18:01:22.509Z,100541.02
2019-04-21T18:03:58.821Z,100541.33
2019-04-21T18:06:20.932Z,100533.98
2019-04-21T18:08:55.198Z,100541.63
2019-04-21T18:13:37.648Z,100540.22
2019-04-21T18:16:20.213Z,100542.12
2019-04-21T18:18:39.090Z,100540.48
2019-04-21T18:21:10.367Z,100534.48
2019-04-21T18:24:00.713Z,100534.88
2019-04-21T18:26:35.455Z,100542.05
2019-04-21T18:28:55.718Z,100544.92
2019-04-21T18:31:27.067Z,100543.84
2019-04-21T18:34:02.308Z,100545.53
2019-04-21T18:36:43.276Z,100549.25
2019-04-21T18:39:34.213Z,100548.62
2019-04-21T18:42:05.053Z,100543.30
2019-04-21T18:44:53.765Z,100549.61
2019-04-21T18:47:16.374Z,100552.58
2019-04-21T18:49:42.696Z,100546.31
2019-04-21T18:52:22.238Z,100546.72
2019-04-21T18:55:00.446Z,100557.57
2019-04-21T18:57:26.514Z,100559.88
2019-04-21T18:59:49.191Z,100561.16
2019-04-21T19:02:22.136Z,100561.38
2019-04-21T19:04:53.637Z,100559.69
2019-04-21T19:07:37.669Z,100562.71
2019-04-21T19:10:26.867Z,100563.02
2019-04-21T19:13:09.215Z,100567.94
2019-04-21T19:15:12.321Z,100567.73
2019-04-21T19:20:25.703Z,100566.33
2019-04-21T19:22:48.656Z,100565.27
2019-04-21T19:25:39.114Z,100563.66
2019-04-21T19:27:48.842Z,100568.59
2019-04-21T19:30:30.062Z,100563.75
2019-04-21T19:32:54.567Z,100560.57
2019-04-21T19:35:11.126Z,100563.08
2019-04-21T19:37:49.657Z,100567.45
2019-04-21T19:40:37.620Z,100563.73
2019-04-21T19:42:57.962Z,100558.39
2019-04-21T19:45:34.248Z,100558.81
2019-04-21T19:48:09.447Z,100557.34
2019-04-21T19:50:42.478Z,100564.51
2019-04-21T19:53:03.418Z,100557.84
2019-04-21T19:55:24.408Z,100555.99
2019-04-21T19:57:54.785Z,100561.16
2019-04-21T20:00:26.472Z,100559.33
2019-04-21T20:02:56.606Z,100562.17
2019-04-21T20:05:36.146Z,100564.17
2019-04-21T20:08:11.311Z,100564.81
2019-04-21T20:10:48.576Z,100563.86
2019-04-21T20:13:26.236Z,100557.42
2019-04-21T20:15:52.048Z,100556.89
2019-04-21T20:18:16.525Z,100556.23
2019-04-21T20:20:35.268Z,100551.98
2019-04-21T20:23:08.909Z,100550.94
2019-04-21T20:25:43.742Z,100548.63
2019-04-21T20:28:15.618Z,100550.08
2019-04-21T20:30:55.781Z,100547.70
2019-04-21T20:36:07.911Z,100545.19
2019-04-21T20:38:24.806Z,100537.66
2019-04-21T20:40:56.657Z,100542.52
2019-04-21T20:43:36.579Z,100542.90
2019-04-21T20:46:02.392Z,100547.02
2019-04-21T20:48:34.481Z,100543.05
2019-04-21T20:51:06.402Z,100537.99
2019-04-21T20:53:36.158Z,100536.11
2019-04-21T20:56:02.405Z,100540.47
2019-04-21T20:58:40.847Z,100536.94
2019-04-21T21:01:25.711Z,100537.80
2019-04-21T21:03:44.347Z,100535.37
2019-04-21T21:06:09.964Z,100534.64
2019-04-21T21:08:47.697Z,100535.78
2019-04-21T21:11:20.902Z,100534.72
2019-04-21T21:13:51.010Z,100529.58
2019-04-21T21:16:29.615Z,100529.34
2019-04-21T21:19:06.937Z,100531.78
2019-04-21T21:21:20.659Z,100525.90
2019-04-21T21:23:54.733Z,100522.16
2019-04-21T21:26:29.294Z,100527.38
2019-04-21T21:28:53.987Z,100532.55
2019-04-21T21:31:33.222Z,100530.12
2019-04-21T21:34:02.079Z,100533.36
2019-04-21T21:36:33.849Z,100530.45
2019-04-21T21:39:08.209Z,100531.34
2019-04-21T21:41:25.800Z,100526.77
2019-04-21T21:43:58.120Z,100525.74
2019-04-21T21:46:35.538Z,100523.63
2019-04-21T21:49:01.996Z,100529.62
2019-04-21T21:51:38.419Z,100526.41
2019-04-21T21:53:54.711Z,100524.80
2019-04-21T21:56:24.784Z,100522.09
2019-04-21T21:58:55.250Z,100524.55
2019-04-21T22:01:35.684Z,100526.22
2019-04-21T22:04:04.921Z,100520.05
2019-04-21T22:06:40.995Z,100518.19
2019-04-21T22:09:00.788Z,100533.14
2019-04-21T22:11:31.787Z,100526.62
2019-04-21T22:14:06.248Z,100521.50
2019-04-21T22:16:45.422Z,100516.08
2019-04-21T22:19:18.881Z,100515.80
2019-04-21T22:21:53.641Z,100514.25
2019-04-21T22:24:20.360Z,100516.45
2019-04-21T22:26:39.018Z,100518.95
2019-04-21T22:29:09.720Z,100520.63
2019-04-21T22:31:41.542Z,100520.15
2019-04-21T22:34:14.058Z,100520.96
2019-04-21T22:36:52.764Z,100521.02
2019-04-21T22:39:36.498Z,100516.16
2019-04-21T22:41:48.480Z,100517.53
2019-04-21T22:44:18.877Z,100515.91
2019-04-21T22:46:58.146Z,100515.44
2019-04-21T22:49:21.925Z,100510.83
2019-04-21T22:51:53.954Z,100517.10
2019-04-21T22:54:31.423Z,100510.61
2019-04-21T22:57:02.592Z,100515.77
2019-04-21T22:59:28.660Z,100511.70
2019-04-21T23:01:59.443Z,100512.56
2019-04-21T23:04:34.183Z,100514.21
2019-04-21T23:07:07.033Z,100509.09
2019-04-21T23:09:33.026Z,100505.61
2019-04-21T23:12:03.264Z,100507.23
2019-04-21T23:14:46.807Z,100504.01
2019-04-21T23:17:28.155Z,100502.13
2019-04-21T23:20:00.023Z,100501.61
2019-04-21T23:22:29.520Z,100495.70
2019-04-21T23:25:03.049Z,100500.26
2019-04-21T23:27:24.048Z,100496.75
2019-04-21T23:30:09.865Z,100503.55
2019-04-21T23:32:29.169Z,100497.56
2019-04-21T23:34:45.939Z,100498.37
2019-04-21T23:37:21.421Z,100493.52
2019-04-21T23:39:47.907Z,100488.66
2019-04-21T23:42:28.551Z,100492.75
2019-04-21T23:44:55.199Z,100487.34
2019-04-21T23:47:34.542Z,100486.83
2019-04-21T23:50:01.394Z,100484.66
2019-04-21T23:52:25.630Z,100484.39
2019-04-21T23:54:55.678Z,100481.14
2019-04-21T23:57:32.377Z,100481.95
2019-04-21T23:59:58.889Z,100475.73
